createdAt,value
2017-09-19T00:00:26.775Z,87.12
2017-09-19T00:01:26.737Z,87.69
2017-09-19T00:02:26.702Z,87.40
2017-09-19T00:03:26.662Z,87.88
2017-09-19T00:04:26.628Z,88.45
2017-09-19T00:05:26.615Z,88.55
2017-09-19T00:06:26.554Z,88.64
2017-09-19T00:07:26.526Z,88.26
2017-09-19T00:08:26.480Z,88.17
2017-09-19T00:09:26.445Z,88.36
2017-09-19T00:10:26.424Z,88.17
2017-09-19T00:11:26.371Z,88.26
2017-09-19T00:12:26.362Z,87.98
2017-09-19T00:13:26.315Z,87.98
2017-09-19T00:14:26.266Z,88.17
2017-09-19T00:15:26.230Z,87.79
2017-09-19T00:16:26.190Z,88.45
2017-09-19T00:17:26.192Z,88.07
2017-09-19T00:18:26.125Z,88.64
2017-09-19T00:19:26.083Z,89.12
2017-09-19T00:20:26.055Z,88.84
2017-09-19T00:21:26.013Z,89.31
2017-09-19T00:22:25.969Z,89.22
2017-09-19T00:23:25.960Z,89.94
2017-09-19T00:24:25.899Z,89.55
2017-09-19T00:25:25.864Z,90.36
2017-09-19T00:26:25.823Z,90.50
2017-09-19T00:27:25.798Z,90.17
2017-09-19T00:28:25.753Z,90.31
2017-09-19T00:29:25.721Z,90.22
2017-09-19T00:30:25.688Z,90.12
2017-09-19T00:31:25.648Z,90.22
2017-09-19T00:32:25.606Z,90.60
2017-09-19T00:33:25.575Z,90.41
2017-09-19T00:34:25.539Z,90.79
2017-09-19T00:35:25.501Z,90.98
2017-09-19T00:36:25.473Z,90.50
2017-09-19T00:37:25.430Z,91.13
2017-09-19T00:38:25.395Z,91.65
2017-09-19T00:39:25.354Z,91.03
2017-09-19T00:40:25.334Z,91.08
2017-09-19T00:41:25.280Z,90.89
2017-09-19T00:42:25.242Z,91.60
2017-09-19T00:43:25.216Z,91.60
2017-09-19T00:44:25.172Z,91.36
2017-09-19T00:45:25.134Z,91.13
2017-09-19T00:46:25.101Z,91.55
2017-09-19T00:47:25.062Z,91.84
2017-09-19T00:48:25.041Z,91.55
2017-09-19T00:49:25.007Z,92.69
2017-09-19T00:50:24.954Z,92.79
2017-09-19T00:51:24.908Z,92.79
2017-09-19T00:52:24.874Z,92.69
2017-09-19T00:53:24.836Z,93.27
2017-09-19T00:54:24.798Z,92.69
2017-09-19T00:55:24.764Z,93.17
2017-09-19T00:56:24.729Z,92.50
2017-09-19T00:57:24.701Z,92.50
2017-09-19T00:58:24.651Z,92.89
2017-09-19T00:59:24.619Z,92.60
2017-09-19T01:00:24.602Z,92.41
2017-09-19T01:01:24.556Z,92.60
2017-09-19T01:02:24.507Z,92.89
2017-09-19T01:03:24.469Z,92.89
2017-09-19T01:04:24.436Z,92.89
2017-09-19T01:05:24.408Z,92.98
2017-09-19T01:06:24.360Z,92.98
2017-09-19T01:07:24.326Z,93.17
2017-09-19T01:08:24.290Z,93.46
2017-09-19T01:09:24.248Z,92.98
2017-09-19T01:10:24.212Z,92.50
2017-09-19T01:11:24.178Z,92.89
2017-09-19T01:12:24.143Z,93.55
2017-09-19T01:13:24.103Z,93.17
2017-09-19T01:14:24.066Z,92.60
2017-09-19T01:15:24.030Z,92.79
2017-09-19T01:16:23.996Z,92.60
2017-09-19T01:17:23.956Z,92.13
2017-09-19T01:18:23.927Z,92.32
2017-09-19T01:19:23.886Z,92.22
2017-09-19T01:20:23.843Z,92.32
2017-09-19T01:21:23.811Z,92.50
2017-09-19T01:22:23.771Z,92.69
2017-09-19T01:23:23.734Z,92.69
2017-09-19T01:24:23.699Z,92.69
2017-09-19T01:25:23.663Z,92.50
2017-09-19T01:26:23.625Z,92.60
2017-09-19T01:27:23.598Z,92.89
2017-09-19T01:28:23.552Z,93.27
2017-09-19T01:29:23.522Z,92.50
2017-09-19T01:30:23.481Z,92.32
2017-09-19T01:31:23.439Z,92.79
2017-09-19T01:32:23.402Z,92.03
2017-09-19T01:33:23.367Z,91.65
2017-09-19T01:34:23.327Z,91.84
2017-09-19T01:35:23.292Z,91.27
2017-09-19T01:36:23.256Z,91.65
2017-09-19T01:37:23.220Z,91.27
2017-09-19T01:38:23.186Z,91.08
2017-09-19T01:39:23.146Z,91.74
2017-09-19T01:40:23.130Z,91.46
2017-09-19T01:41:23.074Z,91.55
2017-09-19T01:42:23.038Z,91.84
2017-09-19T01:43:23.005Z,91.94
2017-09-19T01:44:22.962Z,91.65
2017-09-19T01:45:22.927Z,91.08
2017-09-19T01:46:22.888Z,91.08
2017-09-19T01:47:22.850Z,91.17
2017-09-19T01:48:22.816Z,91.08
2017-09-19T01:49:22.780Z,91.65
2017-09-19T01:50:22.739Z,90.98
2017-09-19T01:51:22.705Z,91.65
2017-09-19T01:52:22.669Z,91.17
2017-09-19T01:53:22.630Z,91.17
2017-09-19T01:54:22.592Z,90.98
2017-09-19T01:55:22.554Z,90.70
2017-09-19T01:56:22.521Z,91.36
2017-09-19T01:57:22.484Z,91.08
2017-09-19T01:58:22.443Z,90.98
2017-09-19T01:59:22.408Z,91.08
2017-09-19T02:00:22.381Z,91.36
2017-09-19T02:01:22.336Z,91.36
2017-09-19T02:02:22.297Z,90.98
2017-09-19T02:03:22.260Z,90.98
2017-09-19T02:04:22.232Z,91.17
2017-09-19T02:05:22.196Z,91.36
2017-09-19T02:06:22.150Z,91.36
2017-09-19T02:07:22.117Z,90.89
2017-09-19T02:08:22.076Z,91.36
2017-09-19T02:09:22.080Z,90.98
2017-09-19T02:10:22.002Z,91.36
2017-09-19T02:11:21.963Z,91.08
2017-09-19T02:12:21.928Z,91.36
2017-09-19T02:13:21.890Z,91.08
2017-09-19T02:14:21.860Z,90.79
2017-09-19T02:15:21.817Z,91.17
2017-09-19T02:16:21.779Z,90.70
2017-09-19T02:17:21.744Z,90.98
2017-09-19T02:18:21.703Z,90.98
2017-09-19T02:19:21.673Z,90.98
2017-09-19T02:20:21.630Z,91.31
2017-09-19T02:21:21.595Z,91.17
2017-09-19T02:22:21.568Z,90.70
2017-09-19T02:23:21.554Z,90.70
2017-09-19T02:24:21.490Z,90.41
2017-09-19T02:25:21.446Z,90.22
2017-09-19T02:26:21.409Z,90.41
2017-09-19T02:27:21.373Z,90.60
2017-09-19T02:28:21.335Z,90.31
2017-09-19T02:29:21.301Z,90.03
2017-09-19T02:30:21.260Z,90.08
2017-09-19T02:31:21.226Z,90.12
2017-09-19T02:32:21.188Z,90.12
2017-09-19T02:33:21.151Z,90.31
2017-09-19T02:34:21.113Z,89.94
2017-09-19T02:35:21.084Z,90.12
2017-09-19T02:36:21.048Z,89.84
2017-09-19T02:37:21.010Z,89.84
2017-09-19T02:38:20.967Z,89.41
2017-09-19T02:39:20.946Z,89.65
2017-09-19T02:40:20.901Z,89.98
2017-09-19T02:41:20.862Z,89.41
2017-09-19T02:42:20.811Z,89.46
2017-09-19T02:43:20.781Z,89.17
2017-09-19T02:44:20.751Z,89.07
2017-09-19T02:45:20.724Z,89.84
2017-09-19T02:46:20.670Z,89.84
2017-09-19T02:47:20.636Z,89.61
2017-09-19T02:48:20.598Z,89.41
2017-09-19T02:49:20.556Z,89.51
2017-09-19T02:50:20.554Z,89.61
2017-09-19T02:51:20.482Z,89.61
2017-09-19T02:52:20.460Z,89.51
2017-09-19T02:53:20.447Z,89.89
2017-09-19T02:54:20.412Z,89.70
2017-09-19T02:55:20.382Z,90.36
2017-09-19T02:56:20.308Z,90.27
2017-09-19T02:57:20.299Z,90.46
2017-09-19T02:58:20.277Z,90.46
2017-09-19T02:59:20.211Z,90.27
2017-09-19T03:00:20.157Z,90.17
2017-09-19T03:01:20.113Z,90.46
2017-09-19T03:02:20.080Z,90.46
2017-09-19T03:03:20.037Z,89.61
2017-09-19T03:04:19.999Z,89.89
2017-09-19T03:05:19.972Z,89.98
2017-09-19T03:06:19.930Z,89.41
2017-09-19T03:07:19.901Z,89.70
2017-09-19T03:08:19.853Z,89.61
2017-09-19T03:09:19.897Z,90.17
2017-09-19T03:10:19.782Z,89.79
2017-09-19T03:11:19.742Z,89.98
2017-09-19T03:12:19.727Z,89.61
2017-09-19T03:13:19.665Z,89.41
2017-09-19T03:14:19.626Z,89.03
2017-09-19T03:15:19.594Z,89.32
2017-09-19T03:16:19.600Z,89.32
2017-09-19T03:17:19.533Z,89.22
2017-09-19T03:18:19.532Z,89.03
2017-09-19T03:19:19.473Z,89.61
2017-09-19T03:20:19.513Z,89.22
2017-09-19T03:21:19.370Z,88.93
2017-09-19T03:22:19.337Z,89.22
2017-09-19T03:23:19.294Z,89.41
2017-09-19T03:24:19.943Z,89.61
2017-09-19T03:25:19.219Z,89.61
2017-09-19T03:26:19.185Z,89.22
2017-09-19T03:27:19.150Z,88.84
2017-09-19T03:28:19.105Z,89.22
2017-09-19T03:29:19.069Z,88.93
2017-09-19T03:30:19.029Z,88.46
2017-09-19T03:31:18.992Z,88.18
2017-09-19T03:32:18.956Z,88.27
2017-09-19T03:33:18.918Z,88.27
2017-09-19T03:34:18.885Z,88.27
2017-09-19T03:35:18.844Z,88.18
2017-09-19T03:36:18.807Z,88.37
2017-09-19T03:37:18.799Z,87.98
2017-09-19T03:38:18.737Z,88.08
2017-09-19T03:39:18.697Z,87.79
2017-09-19T03:40:18.658Z,87.89
2017-09-19T03:41:18.622Z,87.70
2017-09-19T03:42:18.585Z,87.98
2017-09-19T03:43:18.547Z,87.98
2017-09-19T03:44:18.512Z,87.60
2017-09-19T03:45:18.476Z,87.79
2017-09-19T03:46:18.461Z,88.27
2017-09-19T03:47:18.428Z,88.18
2017-09-19T03:48:20.324Z,88.56
2017-09-19T03:49:18.327Z,88.56
2017-09-19T03:50:18.284Z,88.37
2017-09-19T03:51:18.247Z,89.13
2017-09-19T03:52:18.209Z,89.03
2017-09-19T03:53:18.177Z,88.75
2017-09-19T03:54:18.142Z,89.03
2017-09-19T03:55:18.095Z,89.13
2017-09-19T03:56:18.071Z,89.41
2017-09-19T03:57:18.052Z,89.13
2017-09-19T03:58:18.005Z,89.13
2017-09-19T03:59:17.948Z,89.41
2017-09-19T04:00:17.909Z,89.61
2017-09-19T04:01:17.871Z,89.61
2017-09-19T04:02:17.835Z,89.03
2017-09-19T04:03:17.802Z,89.41
2017-09-19T04:04:17.760Z,89.32
2017-09-19T04:05:17.742Z,89.03
2017-09-19T04:06:17.683Z,89.08
2017-09-19T04:07:17.647Z,89.13
2017-09-19T04:08:17.612Z,89.56
2017-09-19T04:09:17.582Z,89.41
2017-09-19T04:10:17.535Z,89.56
2017-09-19T04:11:17.625Z,89.94
2017-09-19T04:12:17.462Z,89.65
2017-09-19T04:13:17.425Z,89.47
2017-09-19T04:14:17.390Z,89.94
2017-09-19T04:15:17.347Z,89.94
2017-09-19T04:16:17.311Z,89.41
2017-09-19T04:17:17.278Z,89.47
2017-09-19T04:18:17.244Z,89.18
2017-09-19T04:19:17.199Z,89.18
2017-09-19T04:20:17.161Z,89.03
2017-09-19T04:21:17.124Z,89.22
2017-09-19T04:22:17.097Z,88.70
2017-09-19T04:23:17.047Z,89.27
2017-09-19T04:24:17.017Z,89.18
2017-09-19T04:25:16.974Z,88.79
2017-09-19T04:26:16.938Z,89.18
2017-09-19T04:27:16.902Z,89.18
2017-09-19T04:28:16.875Z,89.08
2017-09-19T04:29:16.824Z,88.99
2017-09-19T04:30:16.786Z,88.79
2017-09-19T04:31:16.755Z,88.51
2017-09-19T04:32:16.711Z,88.56
2017-09-19T04:33:16.674Z,88.13
2017-09-19T04:34:16.636Z,88.23
2017-09-19T04:35:16.604Z,87.98
2017-09-19T04:36:16.565Z,88.23
2017-09-19T04:37:16.525Z,88.27
2017-09-19T04:38:16.491Z,87.98
2017-09-19T04:39:16.449Z,88.08
2017-09-19T04:40:16.417Z,88.65
2017-09-19T04:41:16.376Z,88.56
2017-09-19T04:42:16.340Z,88.27
2017-09-19T04:43:16.301Z,88.18
2017-09-19T04:44:16.263Z,88.18
2017-09-19T04:45:16.237Z,87.98
2017-09-19T04:46:16.191Z,88.27
2017-09-19T04:47:16.152Z,88.56
2017-09-19T04:48:16.110Z,88.08
2017-09-19T04:49:16.078Z,88.08
2017-09-19T04:50:16.037Z,88.27
2017-09-19T04:51:16.000Z,88.27
2017-09-19T04:52:15.969Z,88.18
2017-09-19T04:53:15.931Z,88.27
2017-09-19T04:54:15.889Z,87.70
2017-09-19T04:55:15.851Z,87.89
2017-09-19T04:56:15.817Z,87.32
2017-09-19T04:57:15.774Z,87.51
2017-09-19T04:58:15.740Z,87.51
2017-09-19T04:59:15.712Z,86.84
2017-09-19T05:00:15.662Z,86.65
2017-09-19T05:01:15.626Z,86.84
2017-09-19T05:02:15.603Z,86.22
2017-09-19T05:03:15.552Z,86.12
2017-09-19T05:04:15.521Z,84.60
2017-09-19T05:05:15.475Z,83.59
2017-09-19T05:06:15.456Z,82.78
2017-09-19T05:07:15.405Z,81.73
2017-09-19T05:08:15.363Z,80.49
2017-09-19T05:09:15.329Z,79.28
2017-09-19T05:10:15.289Z,78.33
2017-09-19T05:11:15.252Z,76.75
2017-09-19T05:12:15.216Z,76.46
2017-09-19T05:13:15.180Z,75.22
2017-09-19T05:14:15.147Z,73.92
2017-09-19T05:15:15.104Z,73.92
2017-09-19T05:16:15.076Z,72.91
2017-09-19T05:17:15.034Z,72.33
2017-09-19T05:18:14.994Z,71.86
2017-09-19T05:19:14.965Z,70.94
2017-09-19T05:20:14.931Z,70.17
2017-09-19T05:21:14.904Z,69.02
2017-09-19T05:22:14.860Z,68.68
2017-09-19T05:23:14.821Z,67.91
2017-09-19T05:24:14.800Z,68.01
2017-09-19T05:25:14.778Z,66.76
2017-09-19T05:26:14.706Z,66.51
2017-09-19T05:27:14.670Z,65.74
2017-09-19T05:28:14.652Z,65.36
2017-09-19T05:29:14.605Z,65.39
2017-09-19T05:30:14.587Z,65.01
2017-09-19T05:31:14.553Z,64.15
2017-09-19T05:32:14.519Z,64.09
2017-09-19T05:33:14.463Z,63.13
2017-09-19T05:34:14.441Z,62.74
2017-09-19T05:35:14.456Z,62.30
2017-09-19T05:36:14.414Z,61.82
2017-09-19T05:37:14.329Z,60.96
2017-09-19T05:38:14.291Z,60.03
2017-09-19T05:39:14.253Z,59.83
2017-09-19T05:40:14.230Z,59.19
2017-09-19T05:41:14.189Z,58.23
2017-09-19T05:42:14.169Z,58.71
2017-09-19T05:43:14.121Z,58.04
2017-09-19T05:44:14.089Z,57.85
2017-09-19T05:45:14.052Z,57.95
2017-09-19T05:46:14.056Z,57.65
2017-09-19T05:47:14.000Z,56.92
2017-09-19T05:48:13.964Z,56.15
2017-09-19T05:49:13.919Z,55.60
2017-09-19T05:50:13.884Z,55.02
2017-09-19T05:51:13.875Z,54.83
2017-09-19T05:52:13.830Z,55.12
2017-09-19T05:53:13.792Z,54.45
2017-09-19T05:54:13.752Z,55.12
2017-09-19T05:55:13.719Z,54.38
2017-09-19T05:56:13.704Z,54.12
2017-09-19T05:57:13.653Z,53.25
2017-09-19T05:58:13.676Z,52.87
2017-09-19T05:59:13.594Z,52.39
2017-09-19T06:00:13.554Z,51.81
2017-09-19T06:01:13.525Z,50.97
2017-09-19T06:02:13.491Z,50.78
2017-09-19T06:03:13.459Z,50.49
2017-09-19T06:04:13.426Z,51.17
2017-09-19T06:05:13.394Z,50.23
2017-09-19T06:06:13.369Z,49.55
2017-09-19T06:07:13.327Z,50.04
2017-09-19T06:08:13.296Z,49.68
2017-09-19T06:09:13.264Z,49.29
2017-09-19T06:10:13.237Z,48.61
2017-09-19T06:11:13.199Z,49.00
2017-09-19T06:12:13.165Z,48.52
2017-09-19T06:13:13.143Z,48.23
2017-09-19T06:14:13.108Z,47.67
2017-09-19T06:15:13.074Z,47.97
2017-09-19T06:16:13.060Z,47.39
2017-09-19T06:17:13.016Z,47.49
2017-09-19T06:18:12.983Z,47.10
2017-09-19T06:19:12.951Z,47.10
2017-09-19T06:20:12.926Z,46.73
2017-09-19T06:21:12.888Z,46.55
2017-09-19T06:22:12.858Z,46.62
2017-09-19T06:23:12.834Z,46.71
2017-09-19T06:24:12.795Z,46.55
2017-09-19T06:25:12.775Z,46.06
2017-09-19T06:26:12.733Z,46.25
2017-09-19T06:27:12.726Z,45.77
2017-09-19T06:28:12.677Z,46.45
2017-09-19T06:29:12.642Z,45.77
2017-09-19T06:30:12.613Z,45.87
2017-09-19T06:31:12.583Z,45.68
2017-09-19T06:32:12.556Z,45.87
2017-09-19T06:33:12.523Z,45.70
2017-09-19T06:34:12.489Z,45.21
2017-09-19T06:35:12.464Z,44.83
2017-09-19T06:36:12.434Z,44.93
2017-09-19T06:37:12.401Z,44.93
2017-09-19T06:38:12.369Z,45.03
2017-09-19T06:39:12.353Z,45.00
2017-09-19T06:40:12.314Z,45.70
2017-09-19T06:41:12.280Z,44.93
2017-09-19T06:42:12.248Z,45.14
2017-09-19T06:43:12.222Z,44.83
2017-09-19T06:44:12.189Z,45.12
2017-09-19T06:45:12.161Z,44.83
2017-09-19T06:46:12.171Z,44.81
2017-09-19T06:47:12.097Z,46.25
2017-09-19T06:48:12.072Z,47.72
2017-09-19T06:49:12.043Z,50.46
2017-09-19T06:50:12.010Z,52.36
2017-09-19T06:51:11.988Z,54.04
2017-09-19T06:52:11.950Z,55.77
2017-09-19T06:53:11.924Z,57.53
2017-09-19T06:54:11.902Z,58.84
2017-09-19T06:55:11.871Z,60.16
2017-09-19T06:56:11.839Z,61.66
2017-09-19T06:57:11.806Z,62.52
2017-09-19T06:58:11.780Z,63.29
2017-09-19T06:59:11.747Z,64.15
2017-09-19T07:00:11.717Z,65.26
2017-09-19T07:01:11.703Z,65.55
2017-09-19T07:02:11.659Z,66.13
2017-09-19T07:03:11.644Z,66.22
2017-09-19T07:04:11.602Z,67.34
2017-09-19T07:05:11.568Z,68.07
2017-09-19T07:06:11.537Z,69.21
2017-09-19T07:07:11.505Z,70.07
2017-09-19T07:08:11.481Z,70.46
2017-09-19T07:09:11.445Z,71.47
2017-09-19T07:10:11.414Z,71.22
2017-09-19T07:11:11.392Z,71.89
2017-09-19T07:12:11.354Z,71.51
2017-09-19T07:13:11.322Z,71.80
2017-09-19T07:14:11.289Z,72.05
2017-09-19T07:15:11.256Z,73.10
2017-09-19T07:16:11.229Z,72.81
2017-09-19T07:17:11.203Z,73.00
2017-09-19T07:18:11.163Z,73.19
2017-09-19T07:19:11.133Z,73.19
2017-09-19T07:20:11.115Z,73.29
2017-09-19T07:21:11.069Z,73.04
2017-09-19T07:22:11.040Z,72.75
2017-09-19T07:23:11.003Z,73.04
2017-09-19T07:24:10.970Z,73.04
2017-09-19T07:25:10.950Z,72.08
2017-09-19T07:26:10.916Z,72.56
2017-09-19T07:27:10.900Z,71.70
2017-09-19T07:28:10.851Z,71.99
2017-09-19T07:29:10.810Z,71.22
2017-09-19T07:30:10.774Z,71.36
2017-09-19T07:31:10.743Z,71.26
2017-09-19T07:32:10.712Z,71.26
2017-09-19T07:33:10.680Z,70.68
2017-09-19T07:34:10.647Z,69.86
2017-09-19T07:35:10.613Z,69.95
2017-09-19T07:36:10.605Z,69.29
2017-09-19T07:37:10.550Z,69.09
2017-09-19T07:38:10.515Z,69.19
2017-09-19T07:39:10.482Z,69.09
2017-09-19T07:40:10.463Z,69.38
2017-09-19T07:41:10.418Z,69.95
2017-09-19T07:42:10.406Z,69.67
2017-09-19T07:43:10.363Z,70.05
2017-09-19T07:44:10.320Z,69.67
2017-09-19T07:45:10.300Z,69.38
2017-09-19T07:46:10.316Z,69.19
2017-09-19T07:47:10.243Z,68.80
2017-09-19T07:48:10.192Z,68.71
2017-09-19T07:49:10.160Z,68.90
2017-09-19T07:50:10.133Z,68.17
2017-09-19T07:51:10.128Z,68.07
2017-09-19T07:52:10.070Z,67.79
2017-09-19T07:53:10.048Z,67.31
2017-09-19T07:54:10.021Z,66.64
2017-09-19T07:55:09.983Z,66.83
2017-09-19T07:56:09.960Z,66.86
2017-09-19T07:57:09.908Z,66.67
2017-09-19T07:58:09.869Z,65.81
2017-09-19T07:59:09.841Z,65.81
2017-09-19T08:00:09.807Z,65.42
2017-09-19T08:01:09.785Z,65.42
2017-09-19T08:02:09.750Z,65.71
2017-09-19T08:03:09.711Z,66.19
2017-09-19T08:04:09.676Z,65.97
2017-09-19T08:05:09.728Z,66.19
2017-09-19T08:06:09.613Z,66.00
2017-09-19T08:07:09.592Z,65.68
2017-09-19T08:08:09.549Z,65.81
2017-09-19T08:09:09.559Z,66.29
2017-09-19T08:10:09.481Z,66.77
2017-09-19T08:11:09.453Z,66.64
2017-09-19T08:12:09.426Z,66.96
2017-09-19T08:13:09.396Z,66.83
2017-09-19T08:14:09.370Z,67.11
2017-09-19T08:15:09.324Z,67.50
2017-09-19T08:16:09.288Z,68.62
2017-09-19T08:17:09.254Z,69.00
2017-09-19T08:18:09.226Z,70.78
2017-09-19T08:19:09.195Z,71.64
2017-09-19T08:20:09.161Z,71.83
2017-09-19T08:21:09.125Z,71.83
2017-09-19T08:22:09.096Z,71.55
2017-09-19T08:23:09.058Z,71.83
2017-09-19T08:24:09.030Z,72.47
2017-09-19T08:25:08.998Z,73.33
2017-09-19T08:26:08.972Z,72.85
2017-09-19T08:27:08.931Z,73.23
2017-09-19T08:28:08.895Z,72.85
2017-09-19T08:29:08.875Z,72.98
2017-09-19T08:30:08.840Z,72.88
2017-09-19T08:31:08.802Z,72.98
2017-09-19T08:32:08.780Z,73.17
2017-09-19T08:33:08.734Z,73.27
2017-09-19T08:34:08.702Z,74.04
2017-09-19T08:35:08.678Z,74.13
2017-09-19T08:36:08.634Z,73.80
2017-09-19T08:37:08.612Z,74.04
2017-09-19T08:38:08.572Z,74.09
2017-09-19T08:39:08.535Z,74.76
2017-09-19T08:40:08.503Z,74.76
2017-09-19T08:41:08.471Z,74.48
2017-09-19T08:42:08.437Z,74.76
2017-09-19T08:43:08.409Z,74.48
2017-09-19T08:44:08.369Z,75.09
2017-09-19T08:45:08.346Z,74.66
2017-09-19T08:46:08.300Z,73.52
2017-09-19T08:47:08.270Z,73.65
2017-09-19T08:48:08.238Z,73.99
2017-09-19T08:49:08.206Z,73.27
2017-09-19T08:50:08.179Z,71.64
2017-09-19T08:51:08.140Z,71.64
2017-09-19T08:52:08.114Z,71.83
2017-09-19T08:53:08.073Z,71.83
2017-09-19T08:54:08.035Z,72.12
2017-09-19T08:55:08.003Z,73.17
2017-09-19T08:56:07.975Z,72.88
2017-09-19T08:57:07.940Z,73.46
2017-09-19T08:58:07.903Z,73.08
2017-09-19T08:59:07.877Z,73.27
2017-09-19T09:00:07.837Z,73.17
2017-09-19T09:01:07.810Z,73.27
2017-09-19T09:02:07.767Z,73.08
2017-09-19T09:03:07.737Z,73.17
2017-09-19T09:04:07.727Z,72.85
2017-09-19T09:05:07.671Z,74.04
2017-09-19T09:06:07.642Z,73.94
2017-09-19T09:07:07.610Z,73.36
2017-09-19T09:08:07.569Z,72.98
2017-09-19T09:09:07.537Z,72.98
2017-09-19T09:10:07.502Z,72.98
2017-09-19T09:11:07.470Z,72.31
2017-09-19T09:12:07.432Z,71.87
2017-09-19T09:13:07.409Z,71.68
2017-09-19T09:14:07.379Z,71.20
2017-09-19T09:15:07.338Z,71.48
2017-09-19T09:16:07.310Z,71.39
2017-09-19T09:17:07.267Z,71.48
2017-09-19T09:18:07.234Z,70.81
2017-09-19T09:19:07.200Z,71.11
2017-09-19T09:20:07.163Z,71.11
2017-09-19T09:21:07.137Z,70.24
2017-09-19T09:22:07.100Z,70.53
2017-09-19T09:23:07.079Z,71.01
2017-09-19T09:24:07.035Z,71.01
2017-09-19T09:25:07.007Z,71.58
2017-09-19T09:26:06.970Z,71.58
2017-09-19T09:27:06.934Z,71.62
2017-09-19T09:28:06.899Z,71.33
2017-09-19T09:29:06.867Z,71.33
2017-09-19T09:30:06.844Z,70.72
2017-09-19T09:31:06.802Z,71.01
2017-09-19T09:32:06.767Z,71.30
2017-09-19T09:33:06.735Z,71.11
2017-09-19T09:34:06.702Z,71.20
2017-09-19T09:35:06.670Z,71.48
2017-09-19T09:36:06.642Z,71.48
2017-09-19T09:37:06.616Z,71.20
2017-09-19T09:38:06.569Z,71.39
2017-09-19T09:39:06.536Z,71.11
2017-09-19T09:40:06.501Z,71.58
2017-09-19T09:41:06.474Z,71.30
2017-09-19T09:42:06.441Z,71.04
2017-09-19T09:43:06.417Z,70.76
2017-09-19T09:44:06.368Z,71.30
2017-09-19T09:45:06.332Z,71.48
2017-09-19T09:46:06.310Z,71.87
2017-09-19T09:47:06.268Z,71.39
2017-09-19T09:48:06.236Z,71.87
2017-09-19T09:49:06.204Z,71.81
2017-09-19T09:50:06.172Z,71.91
2017-09-19T09:51:06.137Z,71.42
2017-09-19T09:52:06.108Z,71.52
2017-09-19T09:53:06.076Z,70.70
2017-09-19T09:54:06.036Z,69.83
2017-09-19T09:55:06.003Z,69.26
2017-09-19T09:56:05.969Z,68.97
2017-09-19T09:57:05.937Z,68.78
2017-09-19T09:58:05.905Z,68.78
2017-09-19T09:59:05.869Z,69.07
2017-09-19T10:00:05.836Z,68.68
2017-09-19T10:01:05.807Z,69.35
2017-09-19T10:02:05.770Z,68.87
2017-09-19T10:03:05.739Z,67.63
2017-09-19T10:04:05.714Z,67.82
2017-09-19T10:05:05.674Z,67.79
2017-09-19T10:06:05.640Z,67.98
2017-09-19T10:07:05.610Z,68.84
2017-09-19T10:08:05.574Z,69.23
2017-09-19T10:09:05.544Z,69.32
2017-09-19T10:10:05.511Z,70.09
2017-09-19T10:11:05.477Z,70.18
2017-09-19T10:12:05.452Z,69.89
2017-09-19T10:13:05.416Z,70.09
2017-09-19T10:14:05.382Z,70.56
2017-09-19T10:15:05.389Z,70.95
2017-09-19T10:16:05.317Z,70.95
2017-09-19T10:17:05.279Z,69.70
2017-09-19T10:18:05.259Z,69.35
2017-09-19T10:19:05.234Z,69.35
2017-09-19T10:20:05.189Z,69.07
2017-09-19T10:21:05.192Z,68.40
2017-09-19T10:22:05.123Z,68.49
2017-09-19T10:23:05.083Z,68.59
2017-09-19T10:24:05.058Z,68.11
2017-09-19T10:25:05.018Z,67.91
2017-09-19T10:26:04.981Z,67.72
2017-09-19T10:27:04.953Z,67.25
2017-09-19T10:28:04.923Z,66.86
2017-09-19T10:29:04.912Z,66.48
2017-09-19T10:30:04.857Z,66.86
2017-09-19T10:31:04.831Z,66.77
2017-09-19T10:32:04.806Z,66.67
2017-09-19T10:33:04.791Z,67.31
2017-09-19T10:34:04.718Z,67.69
2017-09-19T10:35:04.695Z,67.91
2017-09-19T10:36:04.667Z,66.86
2017-09-19T10:37:04.633Z,66.67
2017-09-19T10:38:04.590Z,67.72
2017-09-19T10:39:04.565Z,67.44
2017-09-19T10:40:04.530Z,67.54
2017-09-19T10:41:04.505Z,66.58
2017-09-19T10:42:04.461Z,66.86
2017-09-19T10:43:04.430Z,65.81
2017-09-19T10:44:04.401Z,66.22
2017-09-19T10:45:04.383Z,65.84
2017-09-19T10:46:04.338Z,66.03
2017-09-19T10:47:04.298Z,66.03
2017-09-19T10:48:04.270Z,66.80
2017-09-19T10:49:04.323Z,66.80
2017-09-19T10:50:04.205Z,66.71
2017-09-19T10:51:04.162Z,66.99
2017-09-19T10:52:04.132Z,66.99
2017-09-19T10:53:04.106Z,66.22
2017-09-19T10:54:04.066Z,65.84
2017-09-19T10:55:04.042Z,65.62
2017-09-19T10:56:04.004Z,65.91
2017-09-19T10:57:03.978Z,65.65
2017-09-19T10:58:03.947Z,65.46
2017-09-19T10:59:03.902Z,65.55
2017-09-19T11:00:03.870Z,64.98
2017-09-19T11:01:03.844Z,65.17
2017-09-19T11:02:03.805Z,64.22
2017-09-19T11:03:03.771Z,64.53
2017-09-19T11:04:03.743Z,64.25
2017-09-19T11:05:03.707Z,63.96
2017-09-19T11:06:03.672Z,63.57
2017-09-19T11:07:03.642Z,63.32
2017-09-19T11:08:03.610Z,63.42
2017-09-19T11:09:03.579Z,63.51
2017-09-19T11:10:03.545Z,62.65
2017-09-19T11:11:03.511Z,63.12
2017-09-19T11:12:03.493Z,62.52
2017-09-19T11:13:03.450Z,62.62
2017-09-19T11:14:03.415Z,62.45
2017-09-19T11:15:03.384Z,62.45
2017-09-19T11:16:03.362Z,62.36
2017-09-19T11:17:03.321Z,62.26
2017-09-19T11:18:03.296Z,61.62
2017-09-19T11:19:03.267Z,61.62
2017-09-19T11:20:03.226Z,61.05
2017-09-19T11:21:03.195Z,61.24
2017-09-19T11:22:03.168Z,60.66
2017-09-19T11:23:03.128Z,61.11
2017-09-19T11:24:03.099Z,61.52
2017-09-19T11:25:03.070Z,62.10
2017-09-19T11:26:03.033Z,61.59
2017-09-19T11:27:03.012Z,61.81
2017-09-19T11:28:02.973Z,61.24
2017-09-19T11:29:02.948Z,60.11
2017-09-19T11:30:02.908Z,59.92
2017-09-19T11:31:02.878Z,59.16
2017-09-19T11:32:02.846Z,58.13
2017-09-19T11:33:02.815Z,57.45
2017-09-19T11:34:02.785Z,56.40
2017-09-19T11:35:02.752Z,56.01
2017-09-19T11:36:02.719Z,56.49
2017-09-19T11:37:02.693Z,56.40
2017-09-19T11:38:02.661Z,56.71
2017-09-19T11:39:02.627Z,55.53
2017-09-19T11:40:02.596Z,56.21
2017-09-19T11:41:02.565Z,56.11
2017-09-19T11:42:02.536Z,56.40
2017-09-19T11:43:02.506Z,56.49
2017-09-19T11:44:02.473Z,55.91
2017-09-19T11:45:02.444Z,55.85
2017-09-19T11:46:02.429Z,54.89
2017-09-19T11:47:02.383Z,54.89
2017-09-19T11:48:02.349Z,55.63
2017-09-19T11:49:02.327Z,55.73
2017-09-19T11:50:02.288Z,54.89
2017-09-19T11:51:02.261Z,55.08
2017-09-19T11:52:02.235Z,54.86
2017-09-19T11:53:02.200Z,54.96
2017-09-19T11:54:02.167Z,54.28
2017-09-19T11:55:02.139Z,54.93
2017-09-19T11:56:02.108Z,54.35
2017-09-19T11:57:02.075Z,54.93
2017-09-19T11:58:02.045Z,55.79
2017-09-19T11:59:02.020Z,55.69
2017-09-19T12:00:01.989Z,56.27
2017-09-19T12:01:01.952Z,55.63
2017-09-19T12:02:01.924Z,54.96
2017-09-19T12:03:01.900Z,55.05
2017-09-19T12:04:01.863Z,55.91
2017-09-19T12:05:01.876Z,55.44
2017-09-19T12:06:01.812Z,56.01
2017-09-19T12:07:01.786Z,55.34
2017-09-19T12:08:01.743Z,55.63
2017-09-19T12:09:01.717Z,54.22
2017-09-19T12:10:01.693Z,52.39
2017-09-19T12:11:01.648Z,51.62
2017-09-19T12:12:01.628Z,50.66
2017-09-19T12:13:01.597Z,50.56
2017-09-19T12:14:01.570Z,50.66
2017-09-19T12:15:01.529Z,50.46
2017-09-19T12:16:01.501Z,50.95
2017-09-19T12:17:01.471Z,49.91
2017-09-19T12:18:01.442Z,50.49
2017-09-19T12:19:01.407Z,50.49
2017-09-19T12:20:01.382Z,51.07
2017-09-19T12:21:01.347Z,50.78
2017-09-19T12:22:01.316Z,50.68
2017-09-19T12:23:01.289Z,50.40
2017-09-19T12:24:01.265Z,50.40
2017-09-19T12:25:01.233Z,51.53
2017-09-19T12:26:01.199Z,51.50
2017-09-19T12:27:01.177Z,53.20
2017-09-19T12:28:01.137Z,55.00
2017-09-19T12:29:01.113Z,55.38
2017-09-19T12:30:01.113Z,55.96
2017-09-19T12:31:01.050Z,55.77
2017-09-19T12:32:01.019Z,54.42
2017-09-19T12:33:00.986Z,54.13
2017-09-19T12:34:00.977Z,54.23
2017-09-19T12:35:00.926Z,54.16
2017-09-19T12:36:00.897Z,53.97
2017-09-19T12:37:00.887Z,54.06
2017-09-19T12:38:00.847Z,53.87
2017-09-19T12:39:00.817Z,54.25
2017-09-19T12:40:00.789Z,54.90
2017-09-19T12:41:00.748Z,54.52
2017-09-19T12:42:00.719Z,54.25
2017-09-19T12:43:00.684Z,54.42
2017-09-19T12:44:00.654Z,55.41
2017-09-19T12:45:00.658Z,54.74
2017-09-19T12:46:00.615Z,54.45
2017-09-19T12:47:00.565Z,55.22
2017-09-19T12:48:00.535Z,55.02
2017-09-19T12:49:00.515Z,55.00
2017-09-19T12:50:00.466Z,54.93
2017-09-19T12:51:00.451Z,54.45
2017-09-19T12:52:00.408Z,54.45